^^
Grace C. Lehan Memorial Weather Station Historical Data
Daily Summary for November 30, 2021 Units:  English    Metric   Both
Daily Weekly Monthly Yearly
  High: Low: Average:
Temperature: 39.5 °F 26.3 °F 33.5 °F
Dew Point: 32.1 °F 20.1 °F 26.1 °F
Humidity: 84% 64% 74%
Wind Speed: 3.4mph 0mph 0.4mph
Wind Gust: 11mph - -
Wind- - WSW
Pressure: 29.99 in 29.89 in -
Precipitation: 0.00 in    
 
 
Tabular Data for November 30, 2021
Time Temperature Dew Point Pressure Wind Wind Speed Wind Gust Humidity Rainfall Rate (Hourly) solar
00:04 29.6 °F 21.7 °F 29.93 in Calm   6 mph 72% 0.00 in 0 W/m2
00:09 29.6 °F 21.7 °F 29.93 in Calm     72% 0.00 in 0 W/m2
00:14 29.5 °F 21.6 °F 29.93 in Calm     72% 0.00 in 0 W/m2
00:19 29.4 °F 21.5 °F 29.93 in Calm     72% 0.00 in 0 W/m2
00:24 29.3 °F 21.6 °F 29.93 in Calm     72.8% 0.00 in 0 W/m2
00:29 29.2 °F 21.6 °F 29.93 in Calm     73% 0.00 in 0 W/m2
00:34 29.1 °F 21.5 °F 29.93 in WNW 0.2 mph 3 mph 73% 0.00 in 0 W/m2
00:39 29 °F 21.7 °F 29.93 in Calm   3 mph 74% 0.00 in 0 W/m2
00:44 28.9 °F 21.6 °F 29.93 in Calm   3 mph 74% 0.00 in 0 W/m2
00:49 28.8 °F 21.5 °F 29.93 in Calm   3 mph 74% 0.00 in 0 W/m2
00:53 28.7 °F 21.4 °F 29.93 in WNW 1.6 mph 7 mph 74% 0.00 in 0 W/m2
00:59 28.7 °F 21.7 °F 29.93 in Calm   7 mph 75% 0.00 in 0 W/m2
01:04 28.6 °F 21.7 °F 29.93 in Calm   7 mph 75% 0.00 in 0 W/m2
01:09 28.6 °F 21.7 °F 29.93 in Calm     75% 0.00 in 0 W/m2
01:14 28.5 °F 21.6 °F 29.93 in Calm     75% 0.00 in 0 W/m2
01:19 28.4 °F 21.5 °F 29.93 in Calm     75% 0.00 in 0 W/m2
01:24 28.3 °F 21.4 °F 29.93 in Calm     75% 0.00 in 0 W/m2
01:29 28.3 °F 21.6 °F 29.93 in Calm     75.6% 0.00 in 0 W/m2
01:34 28.1 °F 21.6 °F 29.94 in Calm     76% 0.00 in 0 W/m2
01:39 28 °F 21.5 °F 29.93 in Calm     76% 0.00 in 0 W/m2
01:44 28 °F 21.6 °F 29.94 in Calm   1 mph 76.7% 0.00 in 0 W/m2
01:49 27.9 °F 21.6 °F 29.94 in WNW 0.3 mph 2 mph 77% 0.00 in 0 W/m2
01:54 27.9 °F 21.6 °F 29.94 in WNW 2.3 mph 7 mph 77% 0.00 in 0 W/m2
01:59 27.9 °F 21.6 °F 29.94 in WNW 1.2 mph 7 mph 76.7% 0.00 in 0 W/m2
02:04 27.9 °F 21.4 °F 29.94 in WNW 1.1 mph 7 mph 76% 0.00 in 0 W/m2
02:09 28 °F 21.5 °F 29.94 in WNW 2.7 mph 10 mph 76% 0.00 in 0 W/m2
02:14 28.2 °F 21.6 °F 29.94 in WNW 0.8 mph 10 mph 76% 0.00 in 0 W/m2
02:17 28.3 °F 21.5 °F 29.94 in WNW 0.5 mph 10 mph 75.3% 0.00 in 0 W/m2
03:00 28.7 °F 21.5 °F 29.94 in NW 1 mph 6 mph 74% 0.00 in 0 W/m2
03:30 28 °F 21.1 °F 29.94 in NW 1 mph 7 mph 75% 0.00 in 0 W/m2
04:04 27.8 °F 20.6 °F 29.95 in WNW 1.1 mph 7 mph 74.1% 0.00 in 0 W/m2
04:09 27.9 °F 20.7 °F 29.95 in WNW 0.4 mph 3 mph 74% 0.00 in 0 W/m2
04:14 27.9 °F 20.5 °F 29.95 in Calm   3 mph 73.5% 0.00 in 0 W/m2
04:19 27.8 °F 20.3 °F 29.95 in Calm   3 mph 73% 0.00 in 0 W/m2
04:24 27.8 °F 20.3 °F 29.95 in Calm   3 mph 73% 0.00 in 0 W/m2
04:29 27.7 °F 20.3 °F 29.95 in Calm   3 mph 73.5% 0.00 in 0 W/m2
04:34 27.6 °F 20.4 °F 29.95 in Calm   3 mph 74% 0.00 in 0 W/m2
04:39 27.6 °F 20.5 °F 29.95 in Calm     74.3% 0.00 in 0 W/m2
04:44 27.5 °F 20.3 °F 29.95 in Calm     74% 0.00 in 0 W/m2
04:49 27.4 °F 20.2 °F 29.95 in Calm     74% 0.00 in 0 W/m2
04:54 27.3 °F 20.3 °F 29.95 in Calm     74.6% 0.00 in 0 W/m2
04:59 27.3 °F 20.4 °F 29.95 in Calm     75% 0.00 in 0 W/m2
05:04 27.2 °F 20.3 °F 29.95 in Calm     75% 0.00 in 0 W/m2
05:09 27.1 °F 20.3 °F 29.95 in Calm     75% 0.00 in 0 W/m2
05:14 27.1 °F 20.5 °F 29.95 in Calm     75.7% 0.00 in 0 W/m2
05:19 27 °F 20.4 °F 29.95 in Calm     76% 0.00 in 0 W/m2
05:24 26.8 °F 20.2 °F 29.96 in Calm     76% 0.00 in 0 W/m2
05:29 26.6 °F 20.1 °F 29.96 in Calm     76% 0.00 in 0 W/m2
05:34 26.5 °F 20.1 °F 29.96 in Calm     76.4% 0.00 in 0 W/m2
05:39 26.4 °F 20.2 °F 29.96 in Calm     77% 0.00 in 0 W/m2
05:44 26.3 °F 20.1 °F 29.96 in Calm     77% 0.00 in 0 W/m2
05:49 26.3 °F 20.1 °F 29.96 in Calm     77% 0.00 in 0 W/m2
05:54 26.5 °F 20.3 °F 29.96 in Calm     77% 0.00 in 0 W/m2
05:59 26.5 °F 20.3 °F 29.96 in Calm     77% 0.00 in 0 W/m2
06:04 26.5 °F 20.3 °F 29.96 in Calm     77% 0.00 in 0 W/m2
06:09 26.4 °F 20.2 °F 29.97 in Calm     77% 0.00 in 0 W/m2
06:14 26.4 °F 20.2 °F 29.97 in Calm     77% 0.00 in 0 W/m2
06:19 26.4 °F 20.3 °F 29.97 in WNW 0.1 mph 3 mph 77.4% 0.00 in 0 W/m2
06:24 26.6 °F 20.6 °F 29.97 in Calm   3 mph 77.7% 0.00 in 0 W/m2
06:29 26.6 °F 20.4 °F 29.97 in Calm   3 mph 77% 0.00 in 0 W/m2
06:34 26.7 °F 20.8 °F 29.97 in Calm   3 mph 77.8% 0.00 in 0 W/m2
06:39 26.8 °F 20.6 °F 29.97 in Calm     77% 0.00 in 0 W/m2
06:44 26.7 °F 20.6 °F 29.97 in Calm     77.4% 0.00 in 0 W/m2
06:49 26.6 °F 20.7 °F 29.97 in Calm     78% 0.00 in 0 W/m2
06:54 26.5 °F 20.5 °F 29.98 in Calm     78% 0.00 in 0 W/m2
06:59 26.3 °F 20.7 °F 29.98 in Calm     78.8% 0.00 in 5 W/m2
07:04 26.3 °F 20.7 °F 29.98 in Calm     79% 0.00 in 7 W/m2
07:09 26.3 °F 20.7 °F 29.98 in Calm     79.1% 0.00 in 9 W/m2
07:14 26.3 °F 21 °F 29.98 in Calm     80% 0.00 in 11 W/m2
07:19 26.3 °F 21 °F 29.98 in Calm     80% 0.00 in 14 W/m2
07:24 26.3 °F 21 °F 29.98 in Calm     80% 0.00 in 19 W/m2
07:29 26.4 °F 21.3 °F 29.99 in Calm     80.8% 0.00 in 35 W/m2
07:34 26.6 °F 21.6 °F 29.99 in Calm     81.1% 0.00 in 65 W/m2
07:39 27.1 °F 22.3 °F 29.99 in Calm     82% 0.00 in 69 W/m2
07:44 27.6 °F 22.8 °F 29.99 in Calm     81.6% 0.00 in 104 W/m2
07:49 28.2 °F 23.1 °F 29.99 in Calm     80.8% 0.00 in 97 W/m2
07:54 28.7 °F 23.2 °F 29.99 in Calm     79.5% 0.00 in 83 W/m2
07:59 29.1 °F 23.2 °F 29.99 in Calm     78.5% 0.00 in 114 W/m2
08:04 29.7 °F 23.7 °F 29.99 in Calm     78% 0.00 in 142 W/m2
08:09 30.1 °F 24.1 °F 29.99 in Calm     78% 0.00 in 192 W/m2
08:14 31 °F 24.8 °F 29.99 in Calm     77.4% 0.00 in 220 W/m2
08:19 32.1 °F 25.2 °F 29.99 in Calm     75.5% 0.00 in 269 W/m2
08:24 33 °F 24.9 °F 29.99 in Calm     71.9% 0.00 in 181 W/m2
08:29 33.1 °F 24.4 °F 29.99 in Calm     70% 0.00 in 241 W/m2
08:34 32.9 °F 24.2 °F 29.99 in Calm     69.9% 0.00 in 209 W/m2
08:39 32.4 °F 23.6 °F 29.98 in Calm     69.5% 0.00 in 199 W/m2
08:44 32.2 °F 23.8 °F 29.99 in Calm     70.9% 0.00 in 218 W/m2
08:49 32.1 °F 24.1 °F 29.99 in Calm     71.8% 0.00 in 102 W/m2
08:54 32.2 °F 24.2 °F 29.99 in Calm     72% 0.00 in 109 W/m2
08:59 32.3 °F 24.3 °F 29.99 in Calm     72% 0.00 in 109 W/m2
09:04 32.3 °F 24.3 °F 29.98 in Calm     71.9% 0.00 in 125 W/m2
09:09 32.3 °F 24.1 °F 29.98 in Calm     71.5% 0.00 in 135 W/m2
09:14 32.1 °F 23.5 °F 29.98 in Calm     70% 0.00 in 142 W/m2
09:19 32.1 °F 23.7 °F 29.98 in Calm     70.8% 0.00 in 165 W/m2
09:24 32.3 °F 24 °F 29.98 in Calm     71% 0.00 in 167 W/m2
09:29 32.4 °F 23.7 °F 29.98 in Calm     70.1% 0.00 in 200 W/m2
09:34 32.5 °F 24 °F 29.98 in Calm     70.7% 0.00 in 232 W/m2
09:39 32.8 °F 24.5 °F 29.98 in Calm     71% 0.00 in 232 W/m2
09:44 33.2 °F 24.7 °F 29.98 in Calm     70.6% 0.00 in 190 W/m2
09:49 33.5 °F 24.9 °F 29.99 in Calm     70.1% 0.00 in 193 W/m2
09:54 33.8 °F 24.9 °F 29.98 in Calm     69.5% 0.00 in 172 W/m2
09:59 33.9 °F 24.7 °F 29.98 in Calm     68.6% 0.00 in 160 W/m2
10:04 34.1 °F 24.8 °F 29.98 in Calm     68.4% 0.00 in 153 W/m2
10:09 34.3 °F 24.9 °F 29.98 in Calm     68.3% 0.00 in 165 W/m2
10:14 34.3 °F 24.9 °F 29.97 in Calm     68% 0.00 in 220 W/m2
10:19 34.5 °F 25.2 °F 29.98 in Calm     68.4% 0.00 in 193 W/m2
10:24 34.6 °F 25 °F 29.97 in Calm     67.6% 0.00 in 148 W/m2
10:29 34.6 °F 25.2 °F 29.97 in Calm     68.1% 0.00 in 156 W/m2
10:34 34.7 °F 25.6 °F 29.97 in Calm     69% 0.00 in 181 W/m2
10:39 34.8 °F 25.5 °F 29.96 in West 0.1 mph 2 mph 68.4% 0.00 in 211 W/m2
10:44 34.9 °F 25.4 °F 29.96 in Calm   2 mph 67.9% 0.00 in 234 W/m2
10:49 35 °F 25.5 °F 29.96 in Calm   2 mph 68% 0.00 in 234 W/m2
10:54 35.1 °F 25.7 °F 29.96 in Calm   2 mph 68.4% 0.00 in 220 W/m2
10:59 35.1 °F 25.6 °F 29.95 in West 0.3 mph 3 mph 68% 0.00 in 169 W/m2
11:04 35 °F 25.5 °F 29.95 in Calm   3 mph 68% 0.00 in 132 W/m2
11:09 34.8 °F 25.3 °F 29.95 in Calm     68% 0.00 in 125 W/m2
11:14 34.6 °F 25.4 °F 29.95 in Calm     68.6% 0.00 in 120 W/m2
11:19 34.6 °F 25.6 °F 29.95 in Calm     69.4% 0.00 in 114 W/m2
11:24 34.7 °F 25.9 °F 29.95 in Calm     70% 0.00 in 102 W/m2
11:29 34.8 °F 25.9 °F 29.94 in Calm     69.8% 0.00 in 84 W/m2
11:34 34.9 °F 26.1 °F 29.94 in Calm     70% 0.00 in 83 W/m2
11:39 35 °F 26.1 °F 29.94 in West 0.1 mph 3 mph 69.6% 0.00 in 91 W/m2
11:44 35.1 °F 25.7 °F 29.94 in West 0.1 mph 3 mph 68.3% 0.00 in 121 W/m2
11:49 35.1 °F 26 °F 29.94 in Calm   3 mph 69% 0.00 in 144 W/m2
11:54 35.3 °F 26.2 °F 29.94 in West 0.6 mph 5 mph 69% 0.00 in 148 W/m2
11:59 35.5 °F 26.4 °F 29.94 in WSW 0.8 mph 6 mph 69% 0.00 in 144 W/m2
12:00 35.7 °F 26.5 °F 29.94 in WSW 2 mph 6 mph 69% 0.00 in 139 W/m2
12:09 36 °F 26.5 °F 29.94 in WSW 0.2 mph 2 mph 68% 0.00 in 160 W/m2
12:14 36.2 °F 26.4 °F 29.93 in Calm   2 mph 67.3% 0.00 in 172 W/m2
12:19 36.5 °F 26.9 °F 29.93 in WSW 0.1 mph 2 mph 68% 0.00 in 172 W/m2
12:24 36.7 °F 27.3 °F 29.93 in Calm   2 mph 68.3% 0.00 in 169 W/m2
12:29 37 °F 27.2 °F 29.93 in WSW 0.2 mph 2 mph 67.3% 0.00 in 151 W/m2
12:34 37.2 °F 27.6 °F 29.93 in WSW 0.4 mph 5 mph 67.8% 0.00 in 149 W/m2
12:39 37.5 °F 27.8 °F 29.93 in WSW 2.1 mph 6 mph 67.7% 0.00 in 151 W/m2
12:44 37.7 °F 27.7 °F 29.93 in SW 2.3 mph 9 mph 67% 0.00 in 149 W/m2
12:49 37.8 °F 27.9 °F 29.93 in SW 1.9 mph 9 mph 67% 0.00 in 146 W/m2
12:54 37.9 °F 28 °F 29.93 in SW 1.3 mph 9 mph 67% 0.00 in 153 W/m2
12:59 38.1 °F 28.2 °F 29.92 in WSW 0.8 mph 9 mph 67.2% 0.00 in 160 W/m2
13:04 38.3 °F 28.1 °F 29.92 in WSW 0.6 mph 9 mph 66.3% 0.00 in 158 W/m2
13:09 38.5 °F 28.2 °F 29.92 in WSW 0.9 mph 3 mph 66.2% 0.00 in 162 W/m2
13:14 38.7 °F 28.6 °F 29.92 in WSW 1.4 mph 6 mph 66.7% 0.00 in 172 W/m2
13:19 38.9 °F 28.6 °F 29.92 in WSW 0.5 mph 6 mph 66.3% 0.00 in 176 W/m2
13:24 39.1 °F 28.8 °F 29.92 in SW 0.8 mph 6 mph 66.1% 0.00 in 169 W/m2
13:29 39.3 °F 28.9 °F 29.92 in SW 0.6 mph 6 mph 65.9% 0.00 in 141 W/m2
13:34 39.4 °F 28.7 °F 29.92 in SW 1.1 mph 7 mph 65% 0.00 in 130 W/m2
13:39 39.5 °F 28.6 °F 29.92 in SW 2.1 mph 10 mph 64.5% 0.00 in 113 W/m2
13:44 39.5 °F 28.3 °F 29.92 in SW 2.2 mph 10 mph 64% 0.00 in 91 W/m2
13:49 39.4 °F 28.3 °F 29.92 in SW 1.1 mph 10 mph 64.3% 0.00 in 125 W/m2
13:54 39.3 °F 28.5 °F 29.92 in SW 0.9 mph 10 mph 64.8% 0.00 in 125 W/m2
13:59 39.3 °F 28.5 °F 29.92 in SW 1.6 mph 10 mph 65% 0.00 in 113 W/m2
14:04 39.3 °F 28.4 °F 29.91 in SW 3.1 mph 10 mph 64.5% 0.00 in 111 W/m2
14:09 39.3 °F 28.2 °F 29.91 in WSW 2.8 mph 11 mph 64% 0.00 in 107 W/m2
14:14 39.2 °F 28.2 °F 29.91 in WSW 1.8 mph 11 mph 64.2% 0.00 in 100 W/m2
14:19 39.2 °F 28.4 °F 29.91 in WSW 1.4 mph 11 mph 64.8% 0.00 in 90 W/m2
14:24 39.2 °F 28.4 °F 29.91 in WSW 2.4 mph 11 mph 64.9% 0.00 in 79 W/m2
14:29 39.1 °F 28.3 °F 29.91 in SW 1.1 mph 11 mph 65% 0.00 in 98 W/m2
14:34 39.2 °F 28.6 °F 29.91 in WSW 0.6 mph 11 mph 65.6% 0.00 in 111 W/m2
14:39 39.3 °F 28.9 °F 29.90 in WSW 0.8 mph 6 mph 66% 0.00 in 118 W/m2
14:44 39.4 °F 28.9 °F 29.90 in WSW 0.5 mph 6 mph 65.8% 0.00 in 109 W/m2
14:49 39.5 °F 28.8 °F 29.90 in WSW 1.4 mph 7 mph 65.1% 0.00 in 98 W/m2
14:54 39.5 °F 28.7 °F 29.90 in WSW 1.1 mph 7 mph 65% 0.00 in 69 W/m2
14:59 39.4 °F 28.8 °F 29.90 in SW 1 mph 7 mph 65.5% 0.00 in 62 W/m2
15:04 39.3 °F 29 °F 29.90 in SW 0.5 mph 7 mph 66.3% 0.00 in 72 W/m2
15:09 39.3 °F 29.1 °F 29.90 in SW 2.2 mph 8 mph 66.6% 0.00 in 72 W/m2
15:14 39.2 °F 29.2 °F 29.90 in WSW 1.4 mph 8 mph 67% 0.00 in 47 W/m2
15:19 39.1 °F 29.2 °F 29.90 in SW 1.4 mph 8 mph 67.3% 0.00 in 37 W/m2
15:24 39 °F 29.4 °F 29.90 in SW 1.1 mph 8 mph 68% 0.00 in 40 W/m2
15:29 38.9 °F 29.6 °F 29.90 in SW 1.3 mph 8 mph 68.9% 0.00 in 40 W/m2
15:34 38.8 °F 29.6 °F 29.90 in SW 1 mph 8 mph 69% 0.00 in 32 W/m2
15:39 38.8 °F 29.8 °F 29.90 in SW 0.7 mph 4 mph 69.9% 0.00 in 19 W/m2
15:44 38.7 °F 29.8 °F 29.90 in WSW 0.6 mph 5 mph 70% 0.00 in 16 W/m2
15:49 38.6 °F 29.7 °F 29.90 in WSW 1.3 mph 6 mph 70% 0.00 in 12 W/m2
15:54 38.6 °F 29.8 °F 29.90 in WSW 0.9 mph 6 mph 70.3% 0.00 in 12 W/m2
15:58 38.5 °F 29.9 °F 29.90 in WSW 1.6 mph 6 mph 71% 0.00 in 12 W/m2
16:04 38.4 °F 30.1 °F 29.90 in WSW 0.7 mph 2 mph 71.9% 0.00 in 5 W/m2
16:09 38.3 °F 30.1 °F 29.90 in Calm   2 mph 72% 0.00 in 5 W/m2
16:14 38.3 °F 30.5 °F 29.90 in Calm   2 mph 73.3% 0.00 in 5 W/m2
16:19 38.2 °F 29.9 °F 29.90 in WSW 1.5 mph 6 mph 72% 0.00 in 0 W/m2
16:24 38 °F 29.9 °F 29.90 in SW 0.4 mph 6 mph 72.4% 0.00 in 0 W/m2
16:29 38 °F 30.1 °F 29.90 in WSW 1.6 mph 6 mph 73% 0.00 in 0 W/m2
16:34 37.9 °F 30 °F 29.90 in WSW 0.7 mph 6 mph 73% 0.00 in 0 W/m2
16:39 37.9 °F 30.3 °F 29.90 in WSW 1.8 mph 7 mph 73.8% 0.00 in 0 W/m2
16:44 37.9 °F 30.3 °F 29.90 in SW 2.5 mph 7 mph 74% 0.00 in 0 W/m2
16:49 37.8 °F 30.3 °F 29.90 in WSW 1 mph 7 mph 74% 0.00 in 0 W/m2
16:54 37.7 °F 30.5 °F 29.90 in WSW 2.1 mph 7 mph 74.8% 0.00 in 0 W/m2
16:59 37.7 °F 30.5 °F 29.90 in WSW 0.4 mph 7 mph 75% 0.00 in 0 W/m2
17:04 37.7 °F 30.5 °F 29.90 in WSW 0.5 mph 7 mph 75% 0.00 in 0 W/m2
17:09 37.5 °F 30.5 °F 29.90 in SW 1.2 mph 7 mph 75.3% 0.00 in 0 W/m2
17:14 37.5 °F 30.7 °F 29.90 in SW 3.4 mph 10 mph 76.3% 0.00 in 0 W/m2
17:19 37.3 °F 30.8 °F 29.90 in SW 1.4 mph 10 mph 77% 0.00 in 0 W/m2
17:24 37.2 °F 30.9 °F 29.90 in SW 2 mph 10 mph 77.6% 0.00 in 0 W/m2
17:29 37.1 °F 30.9 °F 29.90 in SW 1.2 mph 10 mph 78.1% 0.00 in 0 W/m2
17:34 37 °F 31.1 °F 29.90 in SW 0.3 mph 10 mph 79% 0.00 in 0 W/m2
17:39 36.9 °F 31 °F 29.90 in SW 2 mph 6 mph 79% 0.00 in 0 W/m2
17:44 36.9 °F 31.1 °F 29.90 in SW 1 mph 6 mph 79.2% 0.00 in 0 W/m2
17:49 36.8 °F 31.2 °F 29.90 in SW 0.7 mph 6 mph 80% 0.00 in 0 W/m2
17:54 36.8 °F 31.2 °F 29.90 in SW 1.5 mph 6 mph 80% 0.00 in 0 W/m2
17:59 36.8 °F 31.3 °F 29.90 in SW 0.3 mph 6 mph 80.2% 0.00 in 0 W/m2
18:04 36.7 °F 31.3 °F 29.90 in SW 0.2 mph 6 mph 80.4% 0.00 in 0 W/m2
18:09 36.7 °F 31.4 °F 29.90 in SW 0.2 mph 3 mph 81% 0.00 in 0 W/m2
18:14 36.7 °F 31.4 °F 29.90 in SW 0.2 mph 3 mph 81% 0.00 in 0 W/m2
18:19 36.6 °F 31.4 °F 29.90 in SW 0.3 mph 3 mph 81% 0.00 in 0 W/m2
18:24 36.6 °F 31.5 °F 29.90 in SW 0.2 mph 3 mph 81.6% 0.00 in 0 W/m2
18:29 36.6 °F 31.6 °F 29.90 in Calm   3 mph 81.8% 0.00 in 0 W/m2
18:34 36.6 °F 31.6 °F 29.90 in SW 0.1 mph 3 mph 82% 0.00 in 0 W/m2
18:39 36.5 °F 31.5 °F 29.90 in SW 0.1 mph 3 mph 82% 0.00 in 0 W/m2
18:44 36.5 °F 31.5 °F 29.91 in SW 0.7 mph 4 mph 82% 0.00 in 0 W/m2
18:45 36.5 °F 31.5 °F 29.91 in Calm   4 mph 82% 0.00 in 0 W/m2
19:00 36.6 °F 31.6 °F 29.90 in Calm   4 mph 82% 0.00 in 0 W/m2
19:30 36.5 °F 31.5 °F 29.90 in Calm   4 mph 82% 0.00 in 0 W/m2
20:04 36.1 °F 31.4 °F 29.91 in Calm   4 mph 82.9% 0.00 in 0 W/m2
20:09 36 °F 31.4 °F 29.91 in Calm     83% 0.00 in 0 W/m2
20:14 36 °F 31.4 °F 29.91 in Calm     83% 0.00 in 0 W/m2
20:19 36 °F 31.4 °F 29.91 in Calm     83% 0.00 in 0 W/m2
20:24 36 °F 31.4 °F 29.91 in Calm     83% 0.00 in 0 W/m2
20:29 36 °F 31.4 °F 29.91 in Calm     83% 0.00 in 0 W/m2
20:34 36 °F 31.4 °F 29.91 in Calm     83.2% 0.00 in 0 W/m2
20:39 36 °F 31.6 °F 29.91 in Calm     83.8% 0.00 in 0 W/m2
20:44 36.1 °F 31.7 °F 29.91 in Calm     84% 0.00 in 0 W/m2
20:49 36.2 °F 31.5 °F 29.91 in Calm     83.1% 0.00 in 0 W/m2
20:54 36.2 °F 31.6 °F 29.91 in Calm     83% 0.00 in 0 W/m2
20:59 36.3 °F 31.9 °F 29.91 in Calm     83.6% 0.00 in 0 W/m2
21:04 36.4 °F 31.8 °F 29.91 in SW 0.3 mph 4 mph 83% 0.00 in 0 W/m2
21:09 36.5 °F 31.8 °F 29.91 in SW 0.1 mph 4 mph 83% 0.00 in 0 W/m2
21:13 36.6 °F 31.9 °F 29.91 in Calm   4 mph 83% 0.00 in 0 W/m2
21:30 36.9 °F 31.9 °F 29.91 in Calm   5 mph 82% 0.00 in 0 W/m2
22:00 37.4 °F 32.1 °F 29.90 in WSW 1 mph 10 mph 81% 0.00 in 0 W/m2
22:30 37.4 °F 31.8 °F 29.91 in Calm   5 mph 80% 0.00 in 0 W/m2
23:04 36.9 °F 31.4 °F 29.91 in SW 0.5 mph 5 mph 80% 0.00 in 0 W/m2
23:09 36.8 °F 31.3 °F 29.91 in SW 0.2 mph 3 mph 80.4% 0.00 in 0 W/m2
23:14 36.6 °F 31.4 °F 29.91 in SW 0.1 mph 3 mph 81% 0.00 in 0 W/m2
23:19 36.5 °F 31.2 °F 29.91 in Calm   3 mph 81% 0.00 in 0 W/m2
23:24 36.3 °F 31 °F 29.91 in Calm   3 mph 81% 0.00 in 0 W/m2
23:29 36.1 °F 31 °F 29.91 in Calm   3 mph 81.5% 0.00 in 0 W/m2
23:34 36 °F 31 °F 29.91 in Calm   3 mph 82% 0.00 in 0 W/m2
23:39 35.9 °F 31 °F 29.91 in SW 0.1 mph 3 mph 82% 0.00 in 0 W/m2
23:44 35.9 °F 31.1 °F 29.90 in Calm   3 mph 82.4% 0.00 in 0 W/m2
23:49 35.8 °F 31.1 °F 29.90 in Calm   3 mph 82.8% 0.00 in 0 W/m2
23:54 35.8 °F 31.2 °F 29.90 in Calm   3 mph 83% 0.00 in 0 W/m2
23:59 35.8 °F 31.2 °F 29.89 in Calm   3 mph 83% 0.00 in 0 W/m2
Hartford County Weather
Compliments of Weather Underground - 4 mb